createdAt,value
2018-11-25T00:04:41.675Z,100814.53
2018-11-25T00:09:24.616Z,100806.72
2018-11-25T00:14:08.801Z,100800.20
2018-11-25T00:18:51.680Z,100796.32
2018-11-25T00:23:34.747Z,100792.70
2018-11-25T00:28:17.580Z,100789.73
2018-11-25T00:33:00.555Z,100779.70
2018-11-25T00:37:48.099Z,100782.84
2018-11-25T00:42:26.575Z,100775.40
2018-11-25T00:47:09.472Z,100775.91
2018-11-25T00:51:52.545Z,100777.27
2018-11-25T00:56:35.439Z,100778.50
2018-11-25T01:01:18.548Z,100768.97
2018-11-25T01:06:01.424Z,100768.13
2018-11-25T01:10:44.377Z,100755.46
2018-11-25T01:15:27.271Z,100753.80
2018-11-25T01:20:12.128Z,100747.30
2018-11-25T01:24:55.039Z,100740.73
2018-11-25T01:29:37.942Z,100733.38
2018-11-25T01:34:20.811Z,100737.73
2018-11-25T01:39:04.069Z,100729.94
2018-11-25T01:43:48.144Z,100720.79
2018-11-25T01:48:30.986Z,100718.16
2018-11-25T01:53:13.899Z,100714.71
2018-11-25T01:57:56.772Z,100707.38
2018-11-25T02:02:39.933Z,100706.50
2018-11-25T02:07:22.779Z,100710.39
2018-11-25T02:12:05.836Z,100709.86
2018-11-25T02:16:48.706Z,100709.02
2018-11-25T02:21:31.685Z,100704.56
2018-11-25T02:26:14.555Z,100701.62
2018-11-25T02:30:58.471Z,100697.33
2018-11-25T02:35:41.348Z,100692.97
2018-11-25T02:40:24.244Z,100699.89
2018-11-25T02:45:11.104Z,100690.33
2018-11-25T02:49:56.212Z,100690.73
2018-11-25T02:54:39.088Z,100681.73
2018-11-25T02:59:21.944Z,100675.91
2018-11-25T03:04:04.893Z,100687.79
2018-11-25T03:08:47.794Z,100689.87
2018-11-25T03:13:32.206Z,100685.95
2018-11-25T03:18:15.079Z,100685.97
2018-11-25T03:22:58.486Z,100679.09
2018-11-25T03:27:41.324Z,100673.53
2018-11-25T03:32:24.405Z,100664.92
2018-11-25T03:37:07.287Z,100663.91
2018-11-25T03:41:50.172Z,100659.99
2018-11-25T03:46:33.045Z,100658.30
2018-11-25T03:51:17.998Z,100653.68
2018-11-25T03:56:00.931Z,100659.83
2018-11-25T04:00:44.030Z,100647.89
2018-11-25T04:05:26.906Z,100650.56
2018-11-25T04:10:12.980Z,100651.39
2018-11-25T04:14:55.865Z,100657.19
2018-11-25T04:19:39.912Z,100652.35
2018-11-25T04:24:22.735Z,100658.47
2018-11-25T04:29:07.694Z,100655.86
2018-11-25T04:33:50.988Z,100656.31
2018-11-25T04:38:34.130Z,100652.00
2018-11-25T04:43:17.741Z,100658.06
2018-11-25T04:48:00.630Z,100664.50
2018-11-25T04:52:44.279Z,100655.41
2018-11-25T04:57:27.144Z,100657.52
2018-11-25T05:02:10.179Z,100661.06
2018-11-25T05:06:53.346Z,100667.19
2018-11-25T05:11:36.679Z,100672.78
2018-11-25T05:16:19.559Z,100668.33
2018-11-25T05:21:02.529Z,100672.70
2018-11-25T05:25:45.431Z,100668.41
2018-11-25T05:30:29.605Z,100673.55
2018-11-25T05:35:13.627Z,100671.36
2018-11-25T05:39:57.589Z,100673.60
2018-11-25T05:44:40.445Z,100685.47
2018-11-25T05:49:24.347Z,100677.11
2018-11-25T05:54:07.272Z,100667.08
2018-11-25T05:58:52.202Z,100661.84
2018-11-25T06:03:35.099Z,100670.09
2018-11-25T06:08:17.972Z,100659.23
2018-11-25T06:13:00.931Z,100658.78
2018-11-25T06:17:43.895Z,100654.88
2018-11-25T06:22:26.907Z,100646.13
2018-11-25T06:27:09.799Z,100658.70
2018-11-25T06:31:52.909Z,100661.78
2018-11-25T06:36:35.840Z,100654.29
2018-11-25T06:41:18.935Z,100652.50
2018-11-25T06:46:01.995Z,100649.42
2018-11-25T06:50:46.960Z,100650.21
2018-11-25T06:55:29.889Z,100655.56
2018-11-25T07:00:15.182Z,100658.11
2018-11-25T07:04:58.081Z,100663.44
2018-11-25T07:09:41.053Z,100661.48
2018-11-25T07:14:23.960Z,100659.67
2018-11-25T07:19:06.863Z,100649.38
2018-11-25T07:23:49.807Z,100645.84
2018-11-25T07:28:32.757Z,100634.01
2018-11-25T07:33:15.664Z,100622.44
2018-11-25T07:37:58.559Z,100625.51
2018-11-25T07:42:41.489Z,100619.06
2018-11-25T07:47:24.359Z,100607.45
2018-11-25T07:52:07.301Z,100604.64
2018-11-25T07:56:50.161Z,100603.83
2018-11-25T08:01:35.118Z,100600.02
2018-11-25T08:06:18.258Z,100604.55
2018-11-25T08:11:01.995Z,100604.84
2018-11-25T08:15:44.855Z,100602.61
2018-11-25T08:20:27.892Z,100598.05
2018-11-25T08:25:14.771Z,100602.02
2018-11-25T08:29:58.791Z,100597.95
2018-11-25T08:34:41.675Z,100605.03
2018-11-25T08:39:25.588Z,100622.27
2018-11-25T08:44:08.488Z,100607.84
2018-11-25T08:48:53.392Z,100608.36
2018-11-25T08:53:36.303Z,100588.66
2018-11-25T08:58:20.251Z,100585.06
2018-11-25T09:03:03.127Z,100580.77
2018-11-25T09:07:46.043Z,100570.53
2018-11-25T09:12:29.117Z,100555.86
2018-11-25T09:17:11.989Z,100541.92
2018-11-25T09:21:56.154Z,100541.53
2018-11-25T09:26:39.056Z,100536.65
2018-11-25T09:31:22.165Z,100516.12
2018-11-25T09:36:05.134Z,100532.38
2018-11-25T09:40:48.170Z,100525.52
2018-11-25T09:45:31.109Z,100525.11
2018-11-25T09:50:21.347Z,100530.47
2018-11-25T09:55:04.975Z,100521.72
2018-11-25T09:59:48.895Z,100506.44
2018-11-25T10:04:36.211Z,100489.36
2018-11-25T10:09:21.367Z,100466.48
2018-11-25T10:14:04.665Z,100484.79
2018-11-25T10:18:48.677Z,100469.56
2018-11-25T10:23:34.066Z,100468.56
2018-11-25T10:28:17.007Z,100467.02
2018-11-25T10:33:01.535Z,100458.15
2018-11-25T10:37:45.517Z,100443.44
2018-11-25T10:42:28.492Z,100442.91
2018-11-25T10:47:11.411Z,100440.42
2018-11-25T10:51:54.464Z,100443.21
2018-11-25T10:56:37.315Z,100435.77
2018-11-25T11:01:26.687Z,100419.67
2018-11-25T11:06:14.933Z,100416.83
2018-11-25T11:10:58.026Z,100412.47
2018-11-25T11:15:41.144Z,100408.50
2018-11-25T11:20:25.094Z,100405.49
2018-11-25T11:25:08.918Z,100396.53
2018-11-25T11:29:52.863Z,100386.81
2018-11-25T11:34:35.735Z,100380.22
2018-11-25T11:45:35.603Z,100377.09
2018-11-25T11:50:20.882Z,100362.97
2018-11-25T11:55:04.265Z,100359.11
2018-11-25T11:59:48.858Z,100342.28
2018-11-25T12:04:31.729Z,100341.04
2018-11-25T12:09:14.795Z,100326.97
2018-11-25T12:13:57.753Z,100327.28
2018-11-25T12:18:40.999Z,100316.70
2018-11-25T12:23:23.932Z,100316.83
2018-11-25T12:28:08.074Z,100308.25
2018-11-25T12:32:52.671Z,100302.56
2018-11-25T12:37:36.161Z,100300.84
2018-11-25T12:42:18.809Z,100297.42
2018-11-25T12:47:01.685Z,100296.17
2018-11-25T12:51:44.903Z,100307.91
2018-11-25T12:56:27.822Z,100302.90
2018-11-25T13:01:10.984Z,100308.80
2018-11-25T13:05:54.010Z,100302.88
2018-11-25T13:10:38.177Z,100301.08
2018-11-25T13:15:21.098Z,100296.37
2018-11-25T13:20:06.635Z,100297.51
2018-11-25T13:24:49.508Z,100293.53
2018-11-25T13:29:33.490Z,100288.80
2018-11-25T13:34:16.398Z,100290.90
2018-11-25T13:39:01.304Z,100288.06
2018-11-25T13:43:44.232Z,100280.55
2018-11-25T13:48:27.327Z,100270.21
2018-11-25T13:53:10.209Z,100267.03
2018-11-25T13:57:56.701Z,100272.17
2018-11-25T14:02:40.185Z,100261.84
2018-11-25T14:07:23.592Z,100258.31
2018-11-25T14:12:06.646Z,100252.69
2018-11-25T14:16:49.585Z,100252.36
2018-11-25T14:21:32.665Z,100252.34
2018-11-25T14:26:20.008Z,100250.12
2018-11-25T14:31:04.184Z,100249.09
2018-11-25T14:35:47.109Z,100243.18
2018-11-25T14:40:31.139Z,100246.81
2018-11-25T14:45:19.877Z,100236.48
2018-11-25T14:50:03.499Z,100236.68
2018-11-25T14:54:51.162Z,100239.88
2018-11-25T14:59:31.100Z,100231.71
2018-11-25T15:04:14.018Z,100238.09
2018-11-25T15:08:58.151Z,100234.71
2018-11-25T15:13:41.036Z,100233.62
2018-11-25T15:18:25.191Z,100232.39
2018-11-25T15:23:10.470Z,100238.97
2018-11-25T15:27:53.627Z,100230.97
2018-11-25T15:32:36.548Z,100232.68
2018-11-25T15:37:19.454Z,100220.34
2018-11-25T15:42:02.351Z,100207.13
2018-11-25T15:46:45.230Z,100207.88
2018-11-25T15:51:28.185Z,100211.84
2018-11-25T15:56:11.172Z,100215.70
2018-11-25T16:00:56.912Z,100215.06
2018-11-25T16:05:42.320Z,100222.05
2018-11-25T16:10:26.446Z,100220.72
2018-11-25T16:15:11.948Z,100211.82
2018-11-25T16:19:54.911Z,100214.30
2018-11-25T16:24:37.813Z,100204.20
2018-11-25T16:29:24.395Z,100208.66
2018-11-25T16:34:07.255Z,100212.51
2018-11-25T16:38:51.587Z,100217.23
2018-11-25T16:43:34.435Z,100222.62
2018-11-25T16:48:17.323Z,100234.36
2018-11-25T16:53:00.221Z,100234.25
2018-11-25T16:57:44.004Z,100234.57
2018-11-25T17:02:26.859Z,100226.95
2018-11-25T17:07:09.913Z,100223.97
2018-11-25T17:11:52.862Z,100225.17
2018-11-25T17:16:36.747Z,100219.36
2018-11-25T17:21:20.390Z,100216.27
2018-11-25T17:26:03.313Z,100210.30
2018-11-25T17:30:46.421Z,100212.44
2018-11-25T17:35:31.075Z,100215.47
2018-11-25T17:40:14.565Z,100206.48
2018-11-25T17:45:00.233Z,100188.86
2018-11-25T17:49:43.317Z,100178.59
2018-11-25T17:54:26.809Z,100166.38
2018-11-25T17:59:09.851Z,100168.20
2018-11-25T18:03:52.778Z,100159.11
2018-11-25T18:08:36.908Z,100154.50
2018-11-25T18:14:50.850Z,100152.14
2018-11-25T18:19:33.964Z,100141.12
2018-11-25T18:24:16.911Z,100131.42
2018-11-25T18:29:00.083Z,100134.97
2018-11-25T18:33:43.048Z,100130.71
2018-11-25T18:38:27.065Z,100126.77
2018-11-25T18:43:09.988Z,100131.34
2018-11-25T18:47:53.439Z,100141.58
2018-11-25T18:52:36.338Z,100141.13
2018-11-25T18:57:25.548Z,100133.73
2018-11-25T19:02:51.482Z,100123.53
2018-11-25T19:07:40.512Z,100126.03
2018-11-25T19:12:28.569Z,100122.60
2018-11-25T19:17:13.927Z,100122.45
2018-11-25T19:21:56.803Z,100117.52
2018-11-25T19:26:42.766Z,100119.11
2018-11-25T19:31:25.661Z,100115.28
2018-11-25T19:36:08.621Z,100115.91
2018-11-25T19:40:51.694Z,100097.58
2018-11-25T19:45:35.117Z,100093.31
2018-11-25T19:50:29.360Z,100089.23
2018-11-25T19:55:13.387Z,100082.91
2018-11-25T19:59:56.590Z,100070.49
2018-11-25T20:04:39.489Z,100064.30
2018-11-25T20:09:23.404Z,100053.11
2018-11-25T20:14:06.399Z,100052.08
2018-11-25T20:18:50.364Z,100036.13
2018-11-25T20:23:33.323Z,100034.38
2018-11-25T20:28:16.377Z,100030.52
2018-11-25T20:33:04.724Z,100028.27
2018-11-25T20:37:53.244Z,100020.53
2018-11-25T20:42:36.239Z,100007.79
2018-11-25T20:47:19.447Z,100010.45
2018-11-25T20:52:07.927Z,100012.00
2018-11-25T20:56:51.034Z,100016.61
2018-11-25T21:01:34.907Z,100024.03
2018-11-25T21:06:17.865Z,100021.22
2018-11-25T21:11:00.979Z,100011.03
2018-11-25T21:15:43.957Z,100001.82
2018-11-25T21:20:27.019Z,100004.29
2018-11-25T21:25:13.853Z,99983.75
2018-11-25T21:29:56.894Z,99977.84
2018-11-25T21:34:39.809Z,99963.39
2018-11-25T21:39:23.248Z,99970.41
2018-11-25T21:44:06.763Z,99969.53
2018-11-25T21:48:50.756Z,99979.20
2018-11-25T21:53:33.676Z,99975.66
2018-11-25T21:58:17.335Z,99968.53
2018-11-25T22:03:00.274Z,99961.55
2018-11-25T22:07:44.333Z,99958.57
2018-11-25T22:12:27.222Z,99947.39
2018-11-25T22:17:10.292Z,99942.28
2018-11-25T22:21:53.211Z,99931.20
2018-11-25T22:26:36.938Z,99930.81
2018-11-25T22:31:19.880Z,99922.60
2018-11-25T22:36:02.731Z,99918.72
2018-11-25T22:40:45.775Z,99918.02
2018-11-25T22:45:28.643Z,99912.62
2018-11-25T22:50:13.779Z,99905.25
2018-11-25T22:54:56.648Z,99900.83
2018-11-25T22:59:39.550Z,99895.59
2018-11-25T23:04:33.408Z,99893.58
2018-11-25T23:09:17.384Z,99893.45
2018-11-25T23:14:00.259Z,99885.61
2018-11-25T23:18:44.191Z,99874.39
2018-11-25T23:23:27.094Z,99876.47
2018-11-25T23:28:10.179Z,99860.59
2018-11-25T23:32:53.060Z,99862.99
2018-11-25T23:37:36.979Z,99858.36
2018-11-25T23:42:19.875Z,99867.20
2018-11-25T23:47:02.987Z,99868.59
2018-11-25T23:51:45.869Z,99864.12
2018-11-25T23:56:28.779Z,99862.89
